PWSweather.com
Personal Weather Stations
Station Observations
KOHAVON11
Long Road Station, Avon, OH 44011

Long Road StationAvon, OH 44011

Lat: 41.437, Lon: -82.0477

Elevation: 686

Station Type: Davis Vantage Pro2

http://www.avon-weather.com

Latest ConditionsUpdated 8:51:20 AM EST Friday, Jan 30, 2015
Currently Today's Max Today's Min Today's Average
Temperature 17.6°F-8.0°C 31.6°F-0.2°C 17.6°F-8.0°C 24.9°F-3.9°C
Dew Point 9.8°F-12.3°C 28.2°F-2.1°C 9.4°F-12.6°C 18.3°F-7.6°C
Winds 6.0 mph NW9.7 kmh NW 18.0 mph WNW29.0 kmh WNW - 8.5 mph 13.7 kmh
Wind Gusts 18.0 mph29.0 kmh 24.0 mph38.6 kmh - -
Humidity 71% 87% 70% 76%
Pressure 30.35 in1027.8 mb 30.35 in1027.8 mb 30.05 in1017.6 mb -
Hour Temp Dew Point Humidity Winds Wind Gusts Pressure Precip Precip Rate Daily Precip Total
08:51 AM 17.6°F-8.0°C 9.8°F-12.3°C 71% 6.0 mph NW9.7 kmh NW 18.0 mph29.0 kmh 30.35 in1027.8 mb 0.00 in0.0 mm 0.00 in/hr0.0 mm/hr 0.00 in0.0 mm
08:46 AM 17.6°F-8.0°C 9.4°F-12.6°C 70% 8.0 mph NW12.9 kmh NW 18.0 mph29.0 kmh 30.35 in1027.8 mb 0.00 in0.0 mm 0.00 in/hr0.0 mm/hr 0.00 in0.0 mm
08:41 AM 17.8°F-7.9°C 9.6°F-12.4°C 70% 4.0 mph NW6.4 kmh NW 18.0 mph29.0 kmh 30.34 in1027.4 mb 0.00 in0.0 mm 0.00 in/hr0.0 mm/hr 0.00 in0.0 mm
08:36 AM 18.0°F-7.8°C 10.2°F-12.1°C 71% 10.0 mph N16.1 kmh N 14.0 mph22.5 kmh 30.34 in1027.4 mb 0.00 in0.0 mm 0.00 in/hr0.0 mm/hr 0.00 in0.0 mm
08:31 AM 18.1°F-7.7°C 10.2°F-12.1°C 71% 8.0 mph NW12.9 kmh NW 18.0 mph29.0 kmh 30.34 in1027.4 mb 0.00 in0.0 mm 0.00 in/hr0.0 mm/hr 0.00 in0.0 mm
08:26 AM 18.2°F-7.7°C 10.3°F-12.1°C 71% 6.0 mph NW9.7 kmh NW 18.0 mph29.0 kmh 30.34 in1027.4 mb 0.00 in0.0 mm 0.00 in/hr0.0 mm/hr 0.00 in0.0 mm
08:21 AM 18.3°F-7.6°C 10.4°F-12.0°C 71% 8.0 mph N12.9 kmh N 18.0 mph29.0 kmh 30.34 in1027.4 mb 0.00 in0.0 mm 0.00 in/hr0.0 mm/hr 0.00 in0.0 mm
08:16 AM 18.6°F-7.4°C 10.7°F-11.8°C 71% 8.0 mph NW12.9 kmh NW 18.0 mph29.0 kmh 30.34 in1027.4 mb 0.00 in0.0 mm 0.00 in/hr0.0 mm/hr 0.00 in0.0 mm
08:11 AM 18.7°F-7.4°C 10.8°F-11.8°C 71% 8.0 mph NW12.9 kmh NW 17.0 mph27.4 kmh 30.33 in1027.1 mb 0.00 in0.0 mm 0.00 in/hr0.0 mm/hr 0.00 in0.0 mm
08:06 AM 18.7°F-7.4°C 11.1°F-11.6°C 72% 15.0 mph NW24.1 kmh NW 15.0 mph24.1 kmh 30.33 in1027.1 mb 0.00 in0.0 mm 0.00 in/hr0.0 mm/hr 0.00 in0.0 mm
08:01 AM 18.8°F-7.3°C 11.2°F-11.6°C 72% 6.0 mph WNW9.7 kmh WNW 14.0 mph22.5 kmh 30.33 in1027.1 mb 0.00 in0.0 mm 0.00 in/hr0.0 mm/hr 0.00 in0.0 mm
07:56 AM 18.9°F-7.3°C 11.3°F-11.5°C 72% 6.0 mph NNE9.7 kmh NNE 14.0 mph22.5 kmh 30.32 in1026.8 mb 0.00 in0.0 mm 0.00 in/hr0.0 mm/hr 0.00 in0.0 mm
07:51 AM 19.0°F-7.2°C 11.8°F-11.2°C 73% 11.0 mph NW17.7 kmh NW 17.0 mph27.4 kmh 30.32 in1026.8 mb 0.00 in0.0 mm 0.00 in/hr0.0 mm/hr 0.00 in0.0 mm
07:46 AM 19.1°F-7.2°C 12.2°F-11.0°C 74% 6.0 mph NW9.7 kmh NW 17.0 mph27.4 kmh 30.32 in1026.8 mb 0.00 in0.0 mm 0.00 in/hr0.0 mm/hr 0.00 in0.0 mm
07:41 AM 19.1°F-7.2°C 12.5°F-10.8°C 75% 6.0 mph WNW9.7 kmh WNW 19.0 mph30.6 kmh 30.31 in1026.4 mb 0.00 in0.0 mm 0.00 in/hr0.0 mm/hr 0.00 in0.0 mm
07:36 AM 19.1°F-7.2°C 12.5°F-10.8°C 75% 10.0 mph NNW16.1 kmh NNW 19.0 mph30.6 kmh 30.31 in1026.4 mb 0.00 in0.0 mm 0.00 in/hr0.0 mm/hr 0.00 in0.0 mm
07:31 AM 19.2°F-7.1°C 12.9°F-10.6°C 76% 4.0 mph NNW6.4 kmh NNW 19.0 mph30.6 kmh 30.31 in1026.4 mb 0.00 in0.0 mm 0.00 in/hr0.0 mm/hr 0.00 in0.0 mm
07:26 AM 19.3°F-7.1°C 13.3°F-10.4°C 77% 5.0 mph NNW8.0 kmh NNW 19.0 mph30.6 kmh 30.30 in1026.1 mb 0.00 in0.0 mm 0.00 in/hr0.0 mm/hr 0.00 in0.0 mm
07:21 AM 19.5°F-6.9°C 13.8°F-10.1°C 78% 8.0 mph NNW12.9 kmh NNW 17.0 mph27.4 kmh 30.30 in1026.1 mb 0.00 in0.0 mm 0.00 in/hr0.0 mm/hr 0.00 in0.0 mm
07:16 AM 19.8°F-6.8°C 14.4°F-9.8°C 79% 5.0 mph NW8.0 kmh NW 16.0 mph25.7 kmh 30.30 in1026.1 mb 0.00 in0.0 mm 0.00 in/hr0.0 mm/hr 0.00 in0.0 mm
07:11 AM 20.0°F-6.7°C 14.3°F-9.8°C 78% 3.0 mph N4.8 kmh N 16.0 mph25.7 kmh 30.30 in1026.1 mb 0.00 in0.0 mm 0.00 in/hr0.0 mm/hr 0.00 in0.0 mm
07:06 AM 20.1°F-6.6°C 13.7°F-10.2°C 76% 8.0 mph NW12.9 kmh NW 17.0 mph27.4 kmh 30.29 in1025.7 mb 0.00 in0.0 mm 0.00 in/hr0.0 mm/hr 0.00 in0.0 mm
07:01 AM 20.2°F-6.6°C 13.5°F-10.3°C 75% 6.0 mph NW9.7 kmh NW 17.0 mph27.4 kmh 30.29 in1025.7 mb 0.00 in0.0 mm 0.00 in/hr0.0 mm/hr 0.00 in0.0 mm
06:56 AM 20.3°F-6.5°C 13.6°F-10.2°C 75% 8.0 mph NNW12.9 kmh NNW 20.0 mph32.2 kmh 30.28 in1025.4 mb 0.00 in0.0 mm 0.00 in/hr0.0 mm/hr 0.00 in0.0 mm
06:51 AM 20.5°F-6.4°C 13.8°F-10.1°C 75% 3.0 mph NW4.8 kmh NW 20.0 mph32.2 kmh 30.28 in1025.4 mb 0.00 in0.0 mm 0.00 in/hr0.0 mm/hr 0.00 in0.0 mm
06:46 AM 20.6°F-6.3°C 13.6°F-10.2°C 74% 7.0 mph NW11.3 kmh NW 21.0 mph33.8 kmh 30.27 in1025.1 mb 0.00 in0.0 mm 0.00 in/hr0.0 mm/hr 0.00 in0.0 mm
06:41 AM 20.6°F-6.3°C 13.6°F-10.2°C 74% 8.0 mph NNW12.9 kmh NNW 21.0 mph33.8 kmh 30.27 in1025.1 mb 0.00 in0.0 mm 0.00 in/hr0.0 mm/hr 0.00 in0.0 mm
06:36 AM 20.7°F-6.3°C 13.7°F-10.2°C 74% 6.0 mph NW9.7 kmh NW 21.0 mph33.8 kmh 30.27 in1025.1 mb 0.00 in0.0 mm 0.00 in/hr0.0 mm/hr 0.00 in0.0 mm
06:31 AM 20.8°F-6.2°C 13.8°F-10.1°C 74% 5.0 mph NW8.0 kmh NW 21.0 mph33.8 kmh 30.26 in1024.7 mb 0.00 in0.0 mm 0.00 in/hr0.0 mm/hr 0.00 in0.0 mm
06:26 AM 20.8°F-6.2°C 14.1°F-9.9°C 75% 14.0 mph 22.5 kmh 20.0 mph32.2 kmh 30.26 in1024.7 mb 0.00 in0.0 mm 0.00 in/hr0.0 mm/hr 0.00 in0.0 mm
06:21 AM 20.9°F-6.2°C 14.8°F-9.6°C 77% 15.0 mph N24.1 kmh N 20.0 mph32.2 kmh 30.25 in1024.4 mb 0.00 in0.0 mm 0.00 in/hr0.0 mm/hr 0.00 in0.0 mm
06:16 AM 21.1°F-6.1°C 15.3°F-9.3°C 78% 8.0 mph NW12.9 kmh NW 20.0 mph32.2 kmh 30.25 in1024.4 mb 0.00 in0.0 mm 0.00 in/hr0.0 mm/hr 0.00 in0.0 mm
06:11 AM 21.2°F-6.0°C 15.4°F-9.2°C 78% 8.0 mph W12.9 kmh W 18.0 mph29.0 kmh 30.25 in1024.4 mb 0.00 in0.0 mm 0.00 in/hr0.0 mm/hr 0.00 in0.0 mm
06:06 AM 21.2°F-6.0°C 15.7°F-9.1°C 79% 8.0 mph NNW12.9 kmh NNW 22.0 mph35.4 kmh 30.24 in1024.0 mb 0.00 in0.0 mm 0.00 in/hr0.0 mm/hr 0.00 in0.0 mm
06:01 AM 21.2°F-6.0°C 16.0°F-8.9°C 80% 9.0 mph NW14.5 kmh NW 22.0 mph35.4 kmh 30.23 in1023.7 mb 0.00 in0.0 mm 0.00 in/hr0.0 mm/hr 0.00 in0.0 mm
05:56 AM 21.3°F-5.9°C 16.4°F-8.7°C 81% 5.0 mph W8.0 kmh W 23.0 mph37.0 kmh 30.23 in1023.7 mb 0.00 in0.0 mm 0.00 in/hr0.0 mm/hr 0.00 in0.0 mm
05:51 AM 21.4°F-5.9°C 16.5°F-8.6°C 81% 3.0 mph NNW4.8 kmh NNW 23.0 mph37.0 kmh 30.23 in1023.7 mb 0.00 in0.0 mm 0.00 in/hr0.0 mm/hr 0.00 in0.0 mm
05:46 AM 21.5°F-5.8°C 16.9°F-8.4°C 82% 6.0 mph NW9.7 kmh NW 23.0 mph37.0 kmh 30.22 in1023.4 mb 0.00 in0.0 mm 0.00 in/hr0.0 mm/hr 0.00 in0.0 mm
05:41 AM 21.9°F-5.6°C 17.3°F-8.2°C 82% 4.0 mph NNW6.4 kmh NNW 23.0 mph37.0 kmh 30.22 in1023.4 mb 0.00 in0.0 mm 0.00 in/hr0.0 mm/hr 0.00 in0.0 mm
05:36 AM 22.3°F-5.4°C 17.7°F-7.9°C 82% 6.0 mph NW9.7 kmh NW 19.0 mph30.6 kmh 30.22 in1023.4 mb 0.00 in0.0 mm 0.00 in/hr0.0 mm/hr 0.00 in0.0 mm
05:31 AM 22.7°F-5.2°C 18.1°F-7.7°C 82% 11.0 mph NW17.7 kmh NW 19.0 mph30.6 kmh 30.22 in1023.4 mb 0.00 in0.0 mm 0.00 in/hr0.0 mm/hr 0.00 in0.0 mm
05:26 AM 23.0°F-5.0°C 18.1°F-7.7°C 81% 5.0 mph NW8.0 kmh NW 19.0 mph30.6 kmh 30.21 in1023.0 mb 0.00 in0.0 mm 0.00 in/hr0.0 mm/hr 0.00 in0.0 mm
05:21 AM 23.4°F-4.8°C 18.2°F-7.7°C 80% 5.0 mph NW8.0 kmh NW 18.0 mph29.0 kmh 30.21 in1023.0 mb 0.00 in0.0 mm 0.00 in/hr0.0 mm/hr 0.00 in0.0 mm
05:16 AM 23.7°F-4.6°C 17.8°F-7.9°C 78% 8.0 mph N12.9 kmh N 17.0 mph27.4 kmh 30.21 in1023.0 mb 0.00 in0.0 mm 0.00 in/hr0.0 mm/hr 0.00 in0.0 mm
05:11 AM 23.9°F-4.5°C 17.7°F-7.9°C 77% 5.0 mph WNW8.0 kmh WNW 17.0 mph27.4 kmh 30.20 in1022.7 mb 0.00 in0.0 mm 0.00 in/hr0.0 mm/hr 0.00 in0.0 mm
05:06 AM 24.0°F-4.4°C 17.5°F-8.1°C 76% 11.0 mph NNW17.7 kmh NNW 24.0 mph38.6 kmh 30.20 in1022.7 mb 0.00 in0.0 mm 0.00 in/hr0.0 mm/hr 0.00 in0.0 mm
05:01 AM 24.2°F-4.3°C 17.7°F-7.9°C 76% 8.0 mph NNE12.9 kmh NNE 24.0 mph38.6 kmh 30.19 in1022.4 mb 0.00 in0.0 mm 0.00 in/hr0.0 mm/hr 0.00 in0.0 mm
04:56 AM 24.2°F-4.3°C 17.4°F-8.1°C 75% 4.0 mph NW6.4 kmh NW 24.0 mph38.6 kmh 30.19 in1022.4 mb 0.00 in0.0 mm 0.00 in/hr0.0 mm/hr 0.00 in0.0 mm
04:51 AM 24.3°F-4.3°C 17.2°F-8.2°C 74% 14.0 mph NW22.5 kmh NW 24.0 mph38.6 kmh 30.18 in1022.0 mb 0.00 in0.0 mm 0.00 in/hr0.0 mm/hr 0.00 in0.0 mm
04:46 AM 24.5°F-4.2°C 17.0°F-8.3°C 73% 14.0 mph NNW22.5 kmh NNW 22.0 mph35.4 kmh 30.18 in1022.0 mb 0.00 in0.0 mm 0.00 in/hr0.0 mm/hr 0.00 in0.0 mm
04:41 AM 24.6°F-4.1°C 17.1°F-8.3°C 73% 9.0 mph NW14.5 kmh NW 24.0 mph38.6 kmh 30.18 in1022.0 mb 0.00 in0.0 mm 0.00 in/hr0.0 mm/hr 0.00 in0.0 mm
04:36 AM 24.8°F-4.0°C 17.0°F-8.3°C 72% 12.0 mph NW19.3 kmh NW 24.0 mph38.6 kmh 30.17 in1021.7 mb 0.00 in0.0 mm 0.00 in/hr0.0 mm/hr 0.00 in0.0 mm
04:31 AM 24.9°F-3.9°C 16.8°F-8.4°C 71% 10.0 mph NW16.1 kmh NW 24.0 mph38.6 kmh 30.17 in1021.7 mb 0.00 in0.0 mm 0.00 in/hr0.0 mm/hr 0.00 in0.0 mm
04:26 AM 25.0°F-3.9°C 16.9°F-8.4°C 71% 18.0 mph WNW29.0 kmh WNW 24.0 mph38.6 kmh 30.16 in1021.3 mb 0.00 in0.0 mm 0.00 in/hr0.0 mm/hr 0.00 in0.0 mm
04:21 AM 25.0°F-3.9°C 16.9°F-8.4°C 71% 7.0 mph NNW11.3 kmh NNW 20.0 mph32.2 kmh 30.16 in1021.3 mb 0.00 in0.0 mm 0.00 in/hr0.0 mm/hr 0.00 in0.0 mm
04:16 AM 25.2°F-3.8°C 17.4°F-8.1°C 72% 9.0 mph NW14.5 kmh NW 19.0 mph30.6 kmh 30.16 in1021.3 mb 0.00 in0.0 mm 0.00 in/hr0.0 mm/hr 0.00 in0.0 mm
04:11 AM 25.4°F-3.7°C 17.6°F-8.0°C 72% 7.0 mph NW11.3 kmh NW 24.0 mph38.6 kmh 30.16 in1021.3 mb 0.00 in0.0 mm 0.00 in/hr0.0 mm/hr 0.00 in0.0 mm
04:06 AM 25.5°F-3.6°C 18.0°F-7.8°C 73% 8.0 mph NNW12.9 kmh NNW 24.0 mph38.6 kmh 30.16 in1021.3 mb 0.00 in0.0 mm 0.00 in/hr0.0 mm/hr 0.00 in0.0 mm
04:01 AM 25.6°F-3.6°C 18.4°F-7.6°C 74% 5.0 mph NW8.0 kmh NW 24.0 mph38.6 kmh 30.15 in1021.0 mb 0.00 in0.0 mm 0.00 in/hr0.0 mm/hr 0.00 in0.0 mm
03:56 AM 25.7°F-3.5°C 18.5°F-7.5°C 74% 7.0 mph WNW11.3 kmh WNW 24.0 mph38.6 kmh 30.15 in1021.0 mb 0.00 in0.0 mm 0.00 in/hr0.0 mm/hr 0.00 in0.0 mm
03:51 AM 25.9°F-3.4°C 19.0°F-7.2°C 75% 7.0 mph NNW11.3 kmh NNW 21.0 mph33.8 kmh 30.15 in1021.0 mb 0.00 in0.0 mm 0.00 in/hr0.0 mm/hr 0.00 in0.0 mm
03:46 AM 26.2°F-3.2°C 19.3°F-7.1°C 75% 16.0 mph W25.7 kmh W 21.0 mph33.8 kmh 30.14 in1020.7 mb 0.00 in0.0 mm 0.00 in/hr0.0 mm/hr 0.00 in0.0 mm
03:41 AM 26.4°F-3.1°C 19.5°F-6.9°C 75% 15.0 mph NW24.1 kmh NW 21.0 mph33.8 kmh 30.14 in1020.7 mb 0.00 in0.0 mm 0.00 in/hr0.0 mm/hr 0.00 in0.0 mm
03:36 AM 26.7°F-2.9°C 19.5°F-6.9°C 74% 16.0 mph WNW25.7 kmh WNW 16.0 mph25.7 kmh 30.14 in1020.7 mb 0.00 in0.0 mm 0.00 in/hr0.0 mm/hr 0.00 in0.0 mm
03:31 AM 26.9°F-2.8°C 19.7°F-6.8°C 74% 4.0 mph N6.4 kmh N 22.0 mph35.4 kmh 30.13 in1020.3 mb 0.00 in0.0 mm 0.00 in/hr0.0 mm/hr 0.00 in0.0 mm
03:26 AM 27.2°F-2.7°C 19.6°F-6.9°C 73% 9.0 mph W14.5 kmh W 22.0 mph35.4 kmh 30.13 in1020.3 mb 0.00 in0.0 mm 0.00 in/hr0.0 mm/hr 0.00 in0.0 mm
03:21 AM 27.4°F-2.6°C 19.8°F-6.8°C 73% 8.0 mph WNW12.9 kmh WNW 22.0 mph35.4 kmh 30.13 in1020.3 mb 0.00 in0.0 mm 0.00 in/hr0.0 mm/hr 0.00 in0.0 mm
03:16 AM 27.5°F-2.5°C 19.9°F-6.7°C 73% 11.0 mph WNW17.7 kmh WNW 22.0 mph35.4 kmh 30.13 in1020.3 mb 0.00 in0.0 mm 0.00 in/hr0.0 mm/hr 0.00 in0.0 mm
03:11 AM 27.7°F-2.4°C 20.1°F-6.6°C 73% 9.0 mph NW14.5 kmh NW 15.0 mph24.1 kmh 30.13 in1020.3 mb 0.00 in0.0 mm 0.00 in/hr0.0 mm/hr 0.00 in0.0 mm
03:06 AM 27.8°F-2.3°C 20.2°F-6.6°C 73% 5.0 mph NW8.0 kmh NW 17.0 mph27.4 kmh 30.12 in1020.0 mb 0.00 in0.0 mm 0.00 in/hr0.0 mm/hr 0.00 in0.0 mm
03:01 AM 27.8°F-2.3°C 20.2°F-6.6°C 73% 8.0 mph WNW12.9 kmh WNW 17.0 mph27.4 kmh 30.12 in1020.0 mb 0.00 in0.0 mm 0.00 in/hr0.0 mm/hr 0.00 in0.0 mm
02:56 AM 27.9°F-2.3°C 20.3°F-6.5°C 73% 12.0 mph NW19.3 kmh NW 19.0 mph30.6 kmh 30.13 in1020.3 mb 0.00 in0.0 mm 0.00 in/hr0.0 mm/hr 0.00 in0.0 mm
02:51 AM 28.0°F-2.2°C 20.1°F-6.6°C 72% 8.0 mph NNW12.9 kmh NNW 19.0 mph30.6 kmh 30.12 in1020.0 mb 0.00 in0.0 mm 0.00 in/hr0.0 mm/hr 0.00 in0.0 mm
02:46 AM 28.1°F-2.2°C 20.5°F-6.4°C 73% 17.0 mph NW27.4 kmh NW 19.0 mph30.6 kmh 30.12 in1020.0 mb 0.00 in0.0 mm 0.00 in/hr0.0 mm/hr 0.00 in0.0 mm
02:41 AM 28.3°F-2.1°C 20.7°F-6.3°C 73% 15.0 mph WNW24.1 kmh WNW 19.0 mph30.6 kmh 30.12 in1020.0 mb 0.00 in0.0 mm 0.00 in/hr0.0 mm/hr 0.00 in0.0 mm
02:36 AM 28.4°F-2.0°C 20.5°F-6.4°C 72% 4.0 mph WNW6.4 kmh WNW 23.0 mph37.0 kmh 30.12 in1020.0 mb 0.00 in0.0 mm 0.00 in/hr0.0 mm/hr 0.00 in0.0 mm
02:31 AM 28.6°F-1.9°C 20.7°F-6.3°C 72% 6.0 mph N9.7 kmh N 23.0 mph37.0 kmh 30.12 in1020.0 mb 0.00 in0.0 mm 0.00 in/hr0.0 mm/hr 0.00 in0.0 mm
02:26 AM 28.8°F-1.8°C 20.8°F-6.2°C 72% 10.0 mph WNW16.1 kmh WNW 23.0 mph37.0 kmh 30.11 in1019.6 mb 0.00 in0.0 mm 0.00 in/hr0.0 mm/hr 0.00 in0.0 mm
02:21 AM 29.0°F-1.7°C 21.0°F-6.1°C 72% 8.0 mph NW12.9 kmh NW 23.0 mph37.0 kmh 30.11 in1019.6 mb 0.00 in0.0 mm 0.00 in/hr0.0 mm/hr 0.00 in0.0 mm
02:16 AM 29.2°F-1.6°C 21.6°F-5.8°C 73% 9.0 mph WNW14.5 kmh WNW 21.0 mph33.8 kmh 30.11 in1019.6 mb 0.00 in0.0 mm 0.00 in/hr0.0 mm/hr 0.00 in0.0 mm
02:11 AM 29.5°F-1.4°C 22.5°F-5.3°C 75% 17.0 mph WNW27.4 kmh WNW 21.0 mph33.8 kmh 30.11 in1019.6 mb 0.00 in0.0 mm 0.00 in/hr0.0 mm/hr 0.00 in0.0 mm
02:06 AM 29.6°F-1.3°C 22.6°F-5.2°C 75% 7.0 mph NW11.3 kmh NW 21.0 mph33.8 kmh 30.10 in1019.3 mb 0.00 in0.0 mm 0.00 in/hr0.0 mm/hr 0.00 in0.0 mm
02:01 AM 29.7°F-1.3°C 22.7°F-5.2°C 75% 10.0 mph NW16.1 kmh NW 22.0 mph35.4 kmh 30.09 in1019.0 mb 0.00 in0.0 mm 0.00 in/hr0.0 mm/hr 0.00 in0.0 mm
01:56 AM 29.8°F-1.2°C 22.8°F-5.1°C 75% 7.0 mph NW11.3 kmh NW 22.0 mph35.4 kmh 30.09 in1019.0 mb 0.00 in0.0 mm 0.00 in/hr0.0 mm/hr 0.00 in0.0 mm
01:51 AM 29.8°F-1.2°C 22.5°F-5.3°C 74% 18.0 mph WNW29.0 kmh WNW 22.0 mph35.4 kmh 30.09 in1019.0 mb 0.00 in0.0 mm 0.00 in/hr0.0 mm/hr 0.00 in0.0 mm
01:46 AM 29.9°F-1.2°C 22.9°F-5.1°C 75% 9.0 mph NW14.5 kmh NW 22.0 mph35.4 kmh 30.09 in1019.0 mb 0.00 in0.0 mm 0.00 in/hr0.0 mm/hr 0.00 in0.0 mm
01:41 AM 30.0°F-1.1°C 23.0°F-5.0°C 75% 7.0 mph W11.3 kmh W 18.0 mph29.0 kmh 30.09 in1019.0 mb 0.00 in0.0 mm 0.00 in/hr0.0 mm/hr 0.00 in0.0 mm
01:36 AM 30.0°F-1.1°C 23.0°F-5.0°C 75% 6.0 mph NW9.7 kmh NW 18.0 mph29.0 kmh 30.08 in1018.6 mb 0.00 in0.0 mm 0.00 in/hr0.0 mm/hr 0.00 in0.0 mm
01:31 AM 30.2°F-1.0°C 23.8°F-4.6°C 77% 11.0 mph NW17.7 kmh NW 18.0 mph29.0 kmh 30.08 in1018.6 mb 0.00 in0.0 mm 0.00 in/hr0.0 mm/hr 0.00 in0.0 mm
01:26 AM 30.3°F-0.9°C 24.2°F-4.3°C 78% 12.0 mph WNW19.3 kmh WNW 18.0 mph29.0 kmh 30.08 in1018.6 mb 0.00 in0.0 mm 0.00 in/hr0.0 mm/hr 0.00 in0.0 mm
01:21 AM 30.4°F-0.9°C 24.7°F-4.1°C 79% 9.0 mph WNW14.5 kmh WNW 16.0 mph25.7 kmh 30.08 in1018.6 mb 0.00 in0.0 mm 0.00 in/hr0.0 mm/hr 0.00 in0.0 mm
01:16 AM 30.4°F-0.9°C 24.7°F-4.1°C 79% 6.0 mph W9.7 kmh W 15.0 mph24.1 kmh 30.07 in1018.3 mb 0.00 in0.0 mm 0.00 in/hr0.0 mm/hr 0.00 in0.0 mm
01:11 AM 30.5°F-0.8°C 24.7°F-4.1°C 79% 8.0 mph WNW12.9 kmh WNW 15.0 mph24.1 kmh 30.07 in1018.3 mb 0.00 in0.0 mm 0.00 in/hr0.0 mm/hr 0.00 in0.0 mm
01:06 AM 30.6°F-0.8°C 25.2°F-3.8°C 80% 11.0 mph WNW17.7 kmh WNW 17.0 mph27.4 kmh 30.07 in1018.3 mb 0.00 in0.0 mm 0.00 in/hr0.0 mm/hr 0.00 in0.0 mm
01:01 AM 30.7°F-0.7°C 25.3°F-3.7°C 80% 8.0 mph NW12.9 kmh NW 17.0 mph27.4 kmh 30.07 in1018.3 mb 0.00 in0.0 mm 0.00 in/hr0.0 mm/hr 0.00 in0.0 mm
12:56 AM 30.7°F-0.7°C 25.6°F-3.6°C 81% 14.0 mph NW22.5 kmh NW 18.0 mph29.0 kmh 30.07 in1018.3 mb 0.00 in0.0 mm 0.00 in/hr0.0 mm/hr 0.00 in0.0 mm
12:51 AM 30.8°F-0.7°C 25.7°F-3.5°C 81% 10.0 mph NW16.1 kmh NW 18.0 mph29.0 kmh 30.06 in1017.9 mb 0.00 in0.0 mm 0.00 in/hr0.0 mm/hr 0.00 in0.0 mm
12:46 AM 30.8°F-0.7°C 26.0°F-3.3°C 82% 6.0 mph NW9.7 kmh NW 18.0 mph29.0 kmh 30.06 in1017.9 mb 0.00 in0.0 mm 0.00 in/hr0.0 mm/hr 0.00 in0.0 mm
12:41 AM 30.9°F-0.6°C 26.4°F-3.1°C 83% 7.0 mph NW11.3 kmh NW 18.0 mph29.0 kmh 30.06 in1017.9 mb 0.00 in0.0 mm 0.00 in/hr0.0 mm/hr 0.00 in0.0 mm
12:36 AM 31.0°F-0.6°C 26.7°F-2.9°C 84% 6.0 mph WNW9.7 kmh WNW 17.0 mph27.4 kmh 30.06 in1017.9 mb 0.00 in0.0 mm 0.00 in/hr0.0 mm/hr 0.00 in0.0 mm
12:31 AM 31.1°F-0.5°C 26.8°F-2.9°C 84% 7.0 mph WNW11.3 kmh WNW 14.0 mph22.5 kmh 30.06 in1017.9 mb 0.00 in0.0 mm 0.00 in/hr0.0 mm/hr 0.00 in0.0 mm
12:26 AM 31.2°F-0.4°C 27.2°F-2.7°C 85% 8.0 mph WNW12.9 kmh WNW 17.0 mph27.4 kmh 30.06 in1017.9 mb 0.00 in0.0 mm 0.00 in/hr0.0 mm/hr 0.00 in0.0 mm
12:21 AM 31.2°F-0.4°C 27.2°F-2.7°C 85% 6.0 mph NW9.7 kmh NW 17.0 mph27.4 kmh 30.06 in1017.9 mb 0.00 in0.0 mm 0.00 in/hr0.0 mm/hr 0.00 in0.0 mm
12:16 AM 31.3°F-0.4°C 27.3°F-2.6°C 85% 6.0 mph WNW9.7 kmh WNW 17.0 mph27.4 kmh 30.05 in1017.6 mb 0.00 in0.0 mm 0.00 in/hr0.0 mm/hr 0.00 in0.0 mm
12:11 AM 31.4°F-0.3°C 27.7°F-2.4°C 86% 8.0 mph WNW12.9 kmh WNW 17.0 mph27.4 kmh 30.05 in1017.6 mb 0.00 in0.0 mm 0.00 in/hr0.0 mm/hr 0.00 in0.0 mm
12:06 AM 31.5°F-0.3°C 27.8°F-2.3°C 86% 10.0 mph NW16.1 kmh NW 16.0 mph25.7 kmh 30.05 in1017.6 mb 0.00 in0.0 mm 0.00 in/hr0.0 mm/hr 0.00 in0.0 mm
12:01 AM 31.6°F-0.2°C 28.2°F-2.1°C 87% 9.0 mph W14.5 kmh W 19.0 mph30.6 kmh 30.05 in1017.6 mb 0.00 in0.0 mm 0.00 in/hr0.0 mm/hr 0.00 in0.0 mm